createdAt,value
2017-07-20T04:37:43.831Z,31.5
2017-07-20T04:38:52.777Z,38.4
2017-07-20T04:40:01.702Z,29.0
2017-07-20T04:41:11.939Z,29.5
2017-07-20T04:42:25.792Z,24.3
2017-07-20T04:43:36.942Z,21.0
2017-07-20T04:44:46.090Z,27.8
2017-07-20T04:47:11.744Z,16.9
2017-07-20T04:48:24.293Z,39.2
2017-07-20T04:49:36.649Z,26.9
2017-07-20T04:50:47.801Z,30.0
2017-07-20T04:51:57.217Z,40.1
2017-07-20T04:53:08.994Z,38.3
2017-07-20T04:54:22.535Z,24.9
2017-07-20T04:55:34.812Z,21.1
2017-07-20T04:56:45.617Z,34.0
2017-07-20T04:57:55.150Z,25.9
2017-07-20T04:59:07.317Z,18.9
2017-07-20T05:00:18.615Z,33.2
2017-07-20T05:01:30.665Z,32.1
2017-07-20T05:02:41.285Z,24.2
2017-07-20T05:03:54.411Z,19.7
2017-07-20T05:05:06.397Z,17.1
2017-07-20T05:06:14.557Z,19.4
2017-07-20T05:07:24.675Z,33.5
2017-07-20T05:08:36.483Z,24.0
2017-07-20T05:09:47.675Z,21.5
2017-07-20T05:10:58.311Z,33.1
2017-07-20T05:12:09.941Z,19.6
2017-07-20T05:13:22.759Z,25.1
2017-07-20T05:14:36.644Z,22.5
2017-07-20T05:15:45.890Z,17.2
2017-07-20T05:16:58.058Z,22.8
2017-07-20T05:18:10.487Z,30.9
2017-07-20T05:19:22.342Z,17.4
2017-07-20T05:20:32.217Z,20.6
2017-07-20T05:21:43.077Z,21.7
2017-07-20T05:22:55.854Z,21.4
2017-07-20T05:24:07.435Z,27.4
2017-07-20T05:25:16.963Z,24.7
2017-07-20T05:26:28.057Z,16.3
2017-07-20T05:27:39.399Z,32.5
2017-07-20T05:28:48.984Z,25.5
2017-07-20T05:29:58.112Z,14.5
2017-07-20T05:31:10.367Z,32.0
2017-07-20T05:32:19.737Z,42.0
2017-07-20T05:33:30.873Z,25.9
2017-07-20T05:34:43.023Z,24.0
2017-07-20T05:35:54.277Z,21.5
2017-07-20T05:37:08.362Z,21.4
2017-07-20T05:38:18.713Z,20.7
2017-07-20T05:39:31.381Z,28.2
2017-07-20T05:40:41.189Z,19.8
2017-07-20T05:43:09.389Z,24.8
2017-07-20T05:44:22.144Z,15.0
2017-07-20T05:45:34.863Z,29.0
2017-07-20T05:46:46.071Z,20.3
2017-07-20T05:47:56.345Z,14.7
2017-07-20T05:49:08.158Z,24.9
2017-07-20T05:50:18.248Z,14.5
2017-07-20T05:51:29.417Z,14.1
2017-07-20T05:52:40.289Z,19.8
2017-07-20T05:53:54.412Z,17.3
2017-07-20T05:55:05.187Z,23.8
2017-07-20T05:56:16.334Z,23.4
2017-07-20T05:57:29.492Z,14.7
2017-07-20T05:58:38.303Z,22.5
2017-07-20T05:59:50.538Z,20.8
2017-07-20T06:00:59.146Z,11.7
2017-07-20T06:02:09.542Z,20.2
2017-07-20T06:03:21.997Z,30.0
2017-07-20T06:04:34.328Z,13.9
2017-07-20T06:05:46.237Z,22.3
2017-07-20T14:35:16.104Z,5.8
2017-07-20T14:36:21.864Z,5.7
2017-07-20T14:37:27.635Z,4.6
2017-07-20T14:38:33.430Z,4.8
2017-07-20T14:39:39.221Z,5.5
2017-07-20T14:40:44.997Z,8.7
2017-07-20T14:41:50.750Z,7.9
2017-07-20T14:42:56.519Z,5.1
2017-07-20T14:44:02.301Z,4.7
2017-07-20T14:45:08.061Z,5.4
2017-07-20T14:46:13.816Z,5.4
2017-07-20T14:47:19.588Z,6.6
2017-07-20T14:48:25.404Z,4.1
2017-07-20T14:49:31.225Z,7.6
2017-07-20T14:50:37.007Z,7.0
2017-07-20T14:51:42.761Z,10.5
2017-07-20T14:52:48.513Z,15.2
2017-07-20T14:53:54.302Z,7.1
2017-07-20T14:55:00.087Z,8.3
2017-07-20T14:56:05.838Z,3.3
2017-07-20T14:57:11.588Z,3.3
2017-07-20T14:58:17.363Z,6.6
2017-07-20T14:59:23.134Z,12.0
2017-07-20T15:00:28.888Z,4.4
2017-07-20T15:01:34.664Z,7.4
2017-07-20T15:02:40.449Z,9.6
2017-07-20T15:03:46.209Z,3.8
2017-07-20T15:04:51.972Z,4.9
2017-07-20T15:05:57.770Z,5.1
2017-07-20T15:07:03.467Z,5.6
2017-07-20T15:08:09.223Z,5.1
2017-07-20T15:10:01.935Z,5.1
2017-07-20T15:11:07.713Z,3.7
2017-07-20T15:12:13.506Z,3.5
2017-07-20T15:13:22.275Z,2.9
2017-07-20T15:14:28.795Z,4.0
2017-07-20T15:15:34.612Z,2.7
2017-07-20T15:16:40.391Z,4.0
2017-07-20T15:17:46.196Z,16.5
2017-07-20T15:18:51.977Z,5.3
2017-07-20T15:19:57.751Z,4.5
2017-07-20T15:21:03.528Z,3.7
2017-07-20T15:22:09.446Z,5.7
2017-07-20T15:23:15.295Z,3.3
2017-07-20T15:24:24.333Z,2.9
2017-07-20T15:25:30.395Z,6.6
2017-07-20T15:26:40.723Z,9.6
2017-07-20T15:27:48.475Z,3.2
2017-07-20T15:28:57.221Z,15.5
2017-07-20T15:30:03.005Z,3.9
2017-07-20T15:31:11.323Z,7.4
2017-07-20T15:32:17.057Z,9.5
2017-07-20T15:33:22.908Z,3.8
2017-07-20T15:34:28.751Z,3.0
2017-07-20T15:35:34.638Z,4.3
2017-07-20T15:36:40.339Z,3.5
2017-07-20T15:37:56.362Z,7.9
2017-07-20T15:39:02.163Z,2.3
2017-07-20T15:40:07.903Z,2.3
2017-07-20T15:41:13.702Z,4.0
2017-07-20T15:42:19.510Z,2.6
2017-07-20T15:43:25.294Z,3.3
2017-07-20T15:44:31.021Z,6.8
2017-07-20T15:45:36.793Z,3.5
2017-07-20T15:46:42.539Z,3.2
2017-07-20T15:47:48.953Z,2.5
2017-07-20T15:48:54.659Z,3.3
2017-07-20T15:50:00.403Z,6.1
2017-07-20T15:51:06.108Z,3.4
2017-07-20T15:52:11.817Z,2.0
2017-07-20T15:53:17.524Z,2.3
2017-07-20T15:54:23.223Z,2.4
2017-07-20T15:55:28.953Z,3.8
2017-07-20T15:56:34.652Z,3.3
2017-07-20T15:57:40.363Z,2.4
2017-07-20T15:58:46.061Z,3.5
2017-07-20T15:59:51.835Z,2.6
2017-07-20T16:00:57.562Z,2.4
2017-07-20T16:02:03.260Z,3.8
2017-07-20T16:03:09.158Z,3.5
2017-07-20T16:04:14.870Z,3.6
2017-07-20T16:05:20.626Z,3.8
2017-07-20T16:06:26.328Z,2.7
2017-07-20T16:07:32.059Z,2.6
2017-07-20T16:08:44.769Z,4.1
2017-07-20T16:09:50.463Z,6.2
2017-07-20T16:10:56.174Z,7.6
2017-07-20T16:12:01.867Z,2.9
2017-07-20T16:13:07.611Z,3.6
2017-07-20T16:14:13.316Z,3.2
2017-07-20T16:15:19.021Z,3.6
2017-07-20T16:16:24.745Z,3.1
2017-07-20T16:17:30.440Z,6.0
2017-07-20T16:18:36.143Z,5.9
2017-07-20T16:19:41.846Z,4.9
2017-07-20T16:20:47.585Z,3.5
2017-07-20T16:21:53.295Z,9.5
2017-07-20T16:22:59.004Z,5.2
2017-07-20T16:24:04.706Z,4.3
2017-07-20T16:25:10.416Z,10.0
2017-07-20T16:26:16.124Z,4.3
2017-07-20T16:27:21.851Z,6.5
2017-07-20T16:28:27.569Z,4.8
2017-07-20T16:31:16.934Z,9.9
2017-07-20T16:32:32.627Z,3.7
2017-07-20T16:33:48.341Z,3.7
2017-07-20T16:35:04.011Z,3.3
2017-07-20T16:36:23.488Z,5.3
2017-07-20T16:37:41.155Z,3.4
2017-07-20T16:39:11.447Z,3.3
2017-07-20T16:40:31.208Z,3.6
2017-07-20T16:41:47.424Z,4.3
2017-07-20T16:43:40.807Z,7.8
2017-07-20T16:44:59.412Z,10.1
2017-07-20T16:46:15.098Z,5.6
2017-07-20T16:47:30.793Z,9.2
2017-07-20T16:48:46.476Z,3.9
2017-07-20T16:50:02.161Z,5.7
2017-07-20T16:51:17.843Z,14.3
2017-07-20T16:52:33.529Z,3.5
2017-07-20T16:53:49.220Z,2.7
2017-07-20T16:55:04.918Z,4.7
2017-07-20T16:56:20.605Z,3.5
2017-07-20T16:57:36.393Z,2.7
2017-07-20T16:58:52.075Z,11.4
2017-07-20T17:00:07.756Z,5.7
2017-07-20T17:01:23.442Z,3.3
2017-07-20T17:02:39.131Z,4.1
2017-07-20T17:03:54.819Z,6.9
2017-07-20T17:05:10.505Z,3.4
2017-07-20T17:06:26.200Z,4.1
2017-07-20T17:07:41.909Z,4.4
2017-07-20T17:08:57.594Z,10.2
2017-07-20T17:10:13.279Z,6.0
2017-07-20T17:11:28.970Z,7.6
2017-07-20T17:12:44.671Z,4.7
2017-07-20T17:14:00.364Z,13.1
2017-07-20T17:15:16.049Z,3.8
2017-07-20T17:16:31.735Z,4.4
2017-07-20T17:17:47.432Z,6.6
2017-07-20T17:19:03.135Z,13.2
2017-07-20T17:20:18.823Z,10.1
2017-07-20T17:21:34.517Z,5.6
2017-07-20T17:22:50.222Z,4.0
2017-07-20T17:24:05.927Z,4.2
2017-07-20T17:25:21.606Z,5.3
2017-07-20T17:26:37.292Z,3.8
2017-07-20T17:27:52.980Z,6.7
2017-07-20T17:29:08.667Z,4.9
2017-07-20T17:30:24.364Z,3.8
2017-07-20T17:31:40.056Z,5.9
2017-07-20T17:32:55.747Z,4.2
2017-07-20T17:34:11.423Z,4.1
2017-07-20T17:35:27.115Z,12.5
2017-07-20T17:36:42.802Z,6.3
2017-07-20T17:37:58.512Z,4.6
2017-07-20T17:39:14.188Z,8.5
2017-07-20T17:40:29.870Z,6.0
2017-07-20T17:41:45.555Z,5.1
2017-07-20T17:43:01.286Z,6.8
2017-07-20T17:44:17.005Z,5.5
2017-07-20T17:45:32.686Z,10.6
2017-07-20T17:46:48.371Z,10.1
2017-07-20T17:48:04.081Z,18.9
2017-07-20T17:49:19.774Z,21.2
2017-07-20T17:50:35.471Z,6.0
2017-07-20T17:51:51.149Z,9.9
2017-07-20T17:53:06.861Z,8.6
2017-07-20T17:54:22.537Z,10.1
2017-07-20T17:55:38.217Z,7.1
2017-07-20T17:56:53.899Z,8.0
2017-07-20T17:58:09.630Z,14.3
2017-07-20T17:59:25.318Z,3.4
2017-07-20T18:00:41.001Z,4.8
2017-07-20T18:01:56.690Z,3.7
2017-07-20T18:03:12.418Z,3.2
2017-07-20T18:04:28.101Z,5.7
2017-07-20T18:05:43.786Z,4.9
2017-07-20T18:06:59.473Z,4.8
2017-07-20T18:08:15.185Z,9.1
2017-07-20T18:09:30.862Z,5.1
2017-07-20T18:10:46.546Z,6.1
2017-07-20T18:12:02.228Z,3.4
2017-07-20T18:13:17.982Z,3.6
2017-07-20T18:14:33.663Z,4.4
2017-07-20T18:15:49.347Z,4.8
2017-07-20T18:17:05.031Z,5.1
2017-07-20T18:18:20.761Z,4.4
2017-07-20T18:19:36.456Z,3.4
2017-07-20T18:20:52.138Z,3.9
2017-07-20T18:22:07.824Z,3.3
2017-07-20T18:23:23.542Z,7.0
2017-07-20T18:24:39.241Z,5.0
2017-07-20T18:25:54.934Z,4.3
2017-07-20T18:27:10.627Z,3.3
2017-07-20T18:28:26.344Z,3.0
2017-07-20T18:29:42.032Z,4.5
2017-07-20T18:30:57.713Z,3.7
2017-07-20T18:32:13.412Z,2.7
2017-07-20T18:33:29.156Z,2.3
2017-07-20T18:34:44.837Z,10.3
2017-07-20T18:36:00.529Z,3.5
2017-07-20T18:37:16.243Z,7.8
2017-07-20T18:38:31.952Z,3.6
2017-07-20T18:39:47.645Z,5.6
2017-07-20T18:41:03.337Z,5.1
2017-07-20T18:42:19.020Z,3.3
2017-07-20T18:43:34.782Z,9.1
2017-07-20T18:44:50.492Z,8.9
2017-07-20T18:46:06.174Z,3.4
2017-07-20T18:47:21.882Z,6.0
2017-07-20T18:48:37.612Z,2.7
2017-07-20T18:49:53.306Z,10.3
2017-07-20T18:51:08.994Z,2.7
2017-07-20T18:52:24.680Z,2.9
2017-07-20T18:53:40.422Z,2.8
2017-07-20T18:54:56.110Z,6.2
2017-07-20T18:56:11.798Z,2.9
2017-07-20T18:57:27.487Z,2.2
2017-07-20T18:58:43.208Z,3.9
2017-07-20T18:59:58.898Z,2.5
2017-07-20T19:01:14.585Z,2.1
2017-07-20T19:02:30.260Z,3.6
2017-07-20T19:03:45.987Z,2.7
2017-07-20T19:05:01.689Z,2.4
2017-07-20T19:06:17.384Z,3.1
2017-07-20T19:07:33.093Z,3.7
2017-07-20T19:08:48.854Z,2.0
2017-07-20T19:10:04.567Z,2.5
2017-07-20T19:11:20.261Z,13.4
2017-07-20T19:12:35.973Z,3.6
2017-07-20T19:13:51.702Z,3.4
2017-07-20T19:15:07.438Z,3.8
2017-07-20T19:16:23.160Z,2.3
2017-07-20T19:17:38.878Z,5.7
2017-07-20T19:18:54.626Z,2.8
2017-07-20T19:20:10.314Z,2.7
2017-07-20T19:21:26.018Z,2.7
2017-07-20T19:22:41.748Z,4.8
2017-07-20T19:23:57.561Z,3.0
2017-07-20T19:25:13.278Z,2.6
2017-07-20T19:26:29.055Z,7.0
2017-07-20T19:27:44.805Z,3.1
2017-07-20T19:29:00.593Z,6.5
2017-07-20T19:30:17.545Z,2.4
2017-07-20T19:31:33.364Z,7.4
2017-07-20T19:32:49.119Z,3.8
2017-07-20T19:34:04.984Z,2.4
2017-07-20T19:35:20.752Z,2.2
2017-07-20T19:36:36.592Z,2.3
2017-07-20T19:37:52.391Z,5.4
2017-07-20T19:39:08.162Z,2.3
2017-07-20T19:40:23.940Z,7.6
2017-07-20T19:41:39.748Z,9.2
2017-07-20T19:42:55.500Z,5.1
2017-07-20T19:44:11.315Z,2.9
2017-07-20T19:45:27.005Z,2.7
2017-07-20T19:46:42.712Z,3.9
2017-07-20T19:47:58.462Z,2.3
2017-07-20T19:49:14.283Z,8.0
2017-07-20T19:50:30.034Z,2.1
2017-07-20T19:51:45.795Z,5.0
2017-07-20T19:53:01.583Z,2.6
2017-07-20T19:54:17.408Z,7.8
2017-07-20T19:55:33.168Z,2.4
2017-07-20T19:56:48.943Z,2.5
2017-07-20T19:58:04.635Z,2.8
2017-07-20T19:59:20.386Z,2.5
2017-07-20T20:00:36.943Z,3.0
2017-07-20T20:01:54.944Z,6.4
2017-07-20T20:03:10.748Z,2.8
2017-07-20T20:04:26.472Z,3.0
2017-07-20T20:05:42.157Z,4.5
2017-07-20T20:06:57.901Z,3.8
2017-07-20T20:08:13.660Z,3.0
2017-07-20T20:09:29.397Z,1.5
2017-07-20T20:10:45.109Z,3.6
2017-07-20T20:12:00.821Z,2.8
2017-07-20T20:13:16.520Z,3.2
2017-07-20T20:14:36.266Z,5.0
2017-07-20T20:15:55.753Z,2.4
2017-07-20T20:59:25.248Z,3.0
